Time;durP1;ratioP1;P1;durP2;ratioP2;P2;SDS_P1;SDS_P2;PMS_P1;PMS_P2;Temp;Humidity;BMP_temperature;BMP_pressure;BME280_temperature;BME280_humidity;BME280_pressure;Samples;Min_cycle;Max_cycle;Signal;HPM_P1;HPM_P2
2024/01/29 00:00:19;;;;;;;6.90;6.20;;;;;;;-1.44;100.00;97327.31;7398085;19;20389;-95
2024/01/29 00:02:47;;;;;;;7.83;6.93;;;;;;;-1.58;100.00;97293.06;7397600;19;20400;-93
2024/01/29 00:05:16;;;;;;;8.20;6.27;;;;;;;-1.09;100.00;97376.84;7399104;19;20827;-94
2024/01/29 00:08:16;;;;;;;6.07;5.47;;;;;;;-2.51;100.00;97112.13;7404167;19;20376;-94
2024/01/29 00:13:39;;;;;;;9.23;5.90;;;;;;;-0.83;100.00;97408.75;7397509;19;20416;-95
2024/01/29 00:16:09;;;;;;;6.47;5.87;;;;;;;-1.99;100.00;97240.94;7410389;19;20392;-96
2024/01/29 00:18:36;;;;;;;7.87;5.83;;;;;;;-1.68;100.00;97278.97;7404724;19;20405;-95
2024/01/29 00:21:06;;;;;;;6.03;5.20;;;;;;;-1.47;100.00;97349.09;7404584;19;20393;-95
2024/01/29 00:23:35;;;;;;;7.00;6.10;;;;;;;-1.85;100.00;97268.28;7402355;19;20417;-95
2024/01/29 00:26:06;;;;;;;6.30;5.27;;;;;;;-2.25;100.00;97198.78;7405304;19;20398;-96
2024/01/29 00:29:02;;;;;;;7.57;4.70;;;;;;;-1.93;100.00;97253.81;7407494;19;20352;-95
2024/01/29 00:31:54;;;;;;;6.03;5.30;;;;;;;-1.60;100.00;97304.53;7406086;19;20377;-95
2024/01/29 00:34:30;;;;;;;6.13;5.53;;;;;;;-1.37;100.00;97373.66;7402542;19;20420;-94
2024/01/29 00:37:10;;;;;;;5.37;4.87;;;;;;;-1.29;100.00;97396.63;7404366;19;20380;-95
2024/01/29 00:39:40;;;;;;;6.33;4.87;;;;;;;-1.31;100.00;97389.09;7403625;19;20376;-95
2024/01/29 00:42:22;;;;;;;10.50;6.00;;;;;;;-1.23;100.00;97398.44;7403248;19;20454;-95
2024/01/29 00:44:50;;;;;;;7.47;6.13;;;;;;;-1.82;100.00;97339.91;7405236;19;20628;-96
2024/01/29 00:47:20;;;;;;;8.30;5.87;;;;;;;-1.95;100.00;97330.38;7403651;19;20685;-95
2024/01/29 00:49:52;;;;;;;8.70;5.00;;;;;;;-2.19;100.00;97300.81;7405335;19;20447;-96
2024/01/29 00:52:20;;;;;;;5.70;5.20;;;;;;;-2.33;100.00;97254.69;7404315;19;20381;-95
2024/01/29 00:54:50;;;;;;;8.10;4.93;;;;;;;-1.82;100.00;97332.97;7401465;19;20401;-95
2024/01/29 00:57:20;;;;;;;7.60;6.60;;;;;;;-1.97;100.00;97303.28;7404812;19;20376;-96
2024/01/29 00:59:55;;;;;;;6.70;5.77;;;;;;;-1.67;100.00;97360.34;7404266;19;20380;-96
2024/01/29 01:02:25;;;;;;;6.67;5.47;;;;;;;-1.88;100.00;97328.63;7403381;19;20384;-96
2024/01/29 01:04:57;;;;;;;5.60;4.90;;;;;;;-2.08;100.00;97307.97;7404442;19;20377;-96
2024/01/29 01:07:28;;;;;;;7.20;6.33;;;;;;;-1.54;100.00;97383.53;7404063;19;20368;-96
2024/01/29 01:10:03;;;;;;;5.53;4.93;;;;;;;-1.59;100.00;97384.13;7405264;19;20686;-96
2024/01/29 01:12:32;;;;;;;7.03;6.47;;;;;;;-1.88;100.00;97328.63;7402942;19;20401;-96
2024/01/29 01:15:04;;;;;;;10.10;5.93;;;;;;;-1.63;100.00;97382.94;7403847;19;20678;-95
2024/01/29 01:17:35;;;;;;;7.50;5.17;;;;;;;-1.58;100.00;97383.13;7403535;19;20380;-96
2024/01/29 01:20:08;;;;;;;5.67;5.27;;;;;;;-2.45;100.00;97265.53;7406428;19;20363;-96
2024/01/29 01:22:39;;;;;;;5.90;5.30;;;;;;;-1.68;100.00;97387.84;7404007;19;20381;-96
2024/01/29 01:25:23;;;;;;;6.87;5.50;;;;;;;-2.00;100.00;97326.81;7403877;19;20516;-96
2024/01/29 01:27:53;;;;;;;6.87;4.70;;;;;;;-2.06;100.00;97311.16;7401070;19;20686;-96
2024/01/29 01:30:23;;;;;;;7.70;6.70;;;;;;;-2.63;100.00;97213.88;7409700;19;20393;-94
2024/01/29 01:32:56;;;;;;;6.57;5.60;;;;;;;-1.51;100.00;97376.22;7409950;19;20412;-95
2024/01/29 01:35:25;;;;;;;9.93;6.40;;;;;;;-1.87;100.00;97316.56;7404047;19;20862;-96
2024/01/29 01:37:55;;;;;;;5.90;5.30;;;;;;;-2.22;100.00;97285.00;7403142;19;20361;-96
2024/01/29 01:40:24;;;;;;;5.50;5.00;;;;;;;-2.42;100.00;97264.38;7401625;19;20369;-96
2024/01/29 01:42:53;;;;;;;6.50;5.90;;;;;;;-1.81;100.00;97341.50;7400479;19;20422;-96
2024/01/29 01:45:33;;;;;;;10.10;6.00;;;;;;;-1.70;100.00;97369.25;7402160;19;20381;-96
2024/01/29 01:48:17;;;;;;;14.50;6.40;;;;;;;-2.15;100.00;97302.03;7401374;19;20386;-96
2024/01/29 01:50:45;;;;;;;5.53;4.93;;;;;;;-2.27;100.00;97280.44;7402380;19;20444;-96
2024/01/29 01:53:16;;;;;;;5.93;5.43;;;;;;;-2.33;100.00;97272.69;7400237;19;20448;-95
2024/01/29 01:55:46;;;;;;;6.37;5.87;;;;;;;-1.70;100.00;97369.25;7402426;19;20372;-96
2024/01/29 01:58:24;;;;;;;6.90;6.23;;;;;;;-1.77;100.00;97348.66;7401851;19;20709;-96
2024/01/29 02:00:53;;;;;;;6.50;5.77;;;;;;;-1.69;100.00;97367.47;7401687;19;20413;-96
2024/01/29 02:03:31;;;;;;;6.17;5.53;;;;;;;-1.93;100.00;97314.75;7399540;19;20420;-96
2024/01/29 02:06:03;;;;;;;7.53;6.73;;;;;;;-1.80;100.00;97332.78;7401681;19;20384;-96
2024/01/29 02:08:34;;;;;;;6.83;5.80;;;;;;;-1.93;100.00;97312.19;7400832;19;20378;-96
2024/01/29 02:11:15;;;;;;;5.13;4.63;;;;;;;-2.16;100.00;97267.03;7400393;19;20456;-96
2024/01/29 02:13:46;;;;;;;9.20;5.60;;;;;;;-2.22;100.00;97260.06;7399519;19;20417;-96
2024/01/29 02:16:22;;;;;;;7.30;6.10;;;;;;;-1.83;100.00;97315.19;7400552;19;20386;-96
2024/01/29 02:18:53;;;;;;;10.00;7.00;;;;;;;-2.27;100.00;97259.09;7400080;19;20902;-96
2024/01/29 02:21:26;;;;;;;8.30;6.50;;;;;;;-2.67;100.00;97213.47;7401064;19;20380;-96
2024/01/29 02:24:10;;;;;;;9.60;6.40;;;;;;;-1.83;100.00;97333.19;7398286;19;20423;-96
2024/01/29 02:26:40;;;;;;;9.50;6.37;;;;;;;-1.97;100.00;97282.69;7400345;19;20675;-96
2024/01/29 02:29:23;;;;;;;8.93;5.80;;;;;;;-1.56;100.00;97359.75;7400322;19;20397;-96
2024/01/29 02:31:54;;;;;;;9.93;6.20;;;;;;;-2.10;100.00;97294.53;7402085;19;20377;-96
2024/01/29 02:34:32;;;;;;;6.33;5.70;;;;;;;-2.20;100.00;97277.88;7399257;19;20406;-96
2024/01/29 02:37:08;;;;;;;6.00;5.30;;;;;;;-1.86;100.00;97342.09;7400857;19;20387;-96
2024/01/29 02:39:38;;;;;;;7.73;5.93;;;;;;;-2.28;100.00;97283.19;7399177;19;20374;-96
2024/01/29 02:42:14;;;;;;;11.50;6.77;;;;;;;-2.73;100.00;97221.94;7400459;19;20376;-96
2024/01/29 02:45:04;;;;;;;8.57;7.10;;;;;;;-2.23;100.00;97291.13;7399002;19;20400;-96
2024/01/29 02:47:41;;;;;;;11.73;7.03;;;;;;;-2.79;100.00;97216.78;7400806;19;20396;-96
2024/01/29 02:50:26;;;;;;;6.47;5.87;;;;;;;-2.74;100.00;97245.25;7400548;19;20456;-96
2024/01/29 02:53:07;;;;;;;7.40;6.00;;;;;;;-2.20;100.00;97309.53;7398914;19;20909;-95
2024/01/29 02:55:44;;;;;;;11.30;7.30;;;;;;;-2.47;100.00;97264.13;7399262;19;20468;-96
2024/01/29 02:58:18;;;;;;;6.17;5.67;;;;;;;-2.21;100.00;97304.56;7400152;19;20377;-96
2024/01/29 03:01:06;;;;;;;8.33;7.50;;;;;;;-2.00;100.00;97335.31;7400606;19;20397;-96
2024/01/29 03:03:37;;;;;;;10.60;6.97;;;;;;;-2.42;100.00;97262.59;7399090;19;20412;-96
2024/01/29 03:06:08;;;;;;;8.73;7.10;;;;;;;-2.16;100.00;97308.16;7399487;19;20460;-96
2024/01/29 03:08:40;;;;;;;11.13;7.70;;;;;;;-1.97;100.00;97340.06;7400038;19;20369;-96
2024/01/29 03:11:13;;;;;;;12.37;7.10;;;;;;;-2.19;100.00;97290.53;7400597;19;20388;-96
2024/01/29 03:13:40;;;;;;;11.03;7.97;;;;;;;-3.01;100.00;97169.88;7399158;19;20422;-96
2024/01/29 03:16:16;;;;;;;11.90;7.50;;;;;;;-2.01;100.00;97320.09;7399256;19;20373;-96
2024/01/29 03:18:52;;;;;;;8.57;6.73;;;;;;;-1.80;100.00;97332.78;7399146;19;20452;-96
2024/01/29 03:21:36;;;;;;;9.73;6.50;;;;;;;-2.10;100.00;97268.03;7398763;19;20900;-96
2024/01/29 03:24:12;;;;;;;11.60;7.13;;;;;;;-1.86;100.00;97302.72;7400290;19;20416;-96
2024/01/29 03:26:57;;;;;;;10.83;6.20;;;;;;;-1.91;100.00;97280.16;7425227;19;20373;-96
2024/01/29 03:29:45;;;;;;;12.57;7.33;;;;;;;-1.69;100.00;97328.88;7426812;19;20436;-96
2024/01/29 03:32:28;;;;;;;7.70;6.70;;;;;;;-1.89;100.00;97318.53;7401457;19;20667;-96
2024/01/29 03:35:11;;;;;;;10.30;6.80;;;;;;;-2.09;100.00;97310.75;7400544;19;20393;-96
2024/01/29 03:38:00;;;;;;;10.10;7.60;;;;;;;-1.96;100.00;97295.34;7399548;19;20373;-96
2024/01/29 03:40:27;;;;;;;12.93;9.17;;;;;;;-2.15;100.00;97278.91;7401256;19;20385;-96
2024/01/29 03:42:57;;;;;;;11.93;9.33;;;;;;;-2.10;100.00;97289.38;7401239;19;20424;-96
2024/01/29 03:45:39;;;;;;;16.87;11.23;;;;;;;-2.02;100.00;97292.78;7401268;19;20387;-96
2024/01/29 03:48:08;;;;;;;14.20;11.10;;;;;;;-1.85;100.00;97312.00;7401880;19;20421;-96
2024/01/29 03:50:52;;;;;;;13.37;10.80;;;;;;;-1.74;100.00;97316.59;7407534;19;20383;-96
2024/01/29 03:53:34;;;;;;;10.80;9.00;;;;;;;-2.01;100.00;97314.94;7405332;19;20926;-96
2024/01/29 03:56:22;;;;;;;15.67;9.07;;;;;;;-1.87;100.00;97311.41;7406492;19;20400;-96
2024/01/29 03:59:13;;;;;;;11.00;8.20;;;;;;;-2.45;100.00;97228.75;7410538;19;20375;-95
2024/01/29 04:01:56;;;;;;;12.53;7.87;;;;;;;-2.05;100.00;97310.16;7403812;19;20415;-96
2024/01/29 04:04:44;;;;;;;10.30;8.70;;;;;;;-2.17;100.00;97295.50;7400814;19;20409;-94
2024/01/29 04:07:35;;;;;;;11.40;9.83;;;;;;;-2.41;100.00;97277.03;7402476;19;20490;-96
2024/01/29 04:10:20;;;;;;;15.10;10.80;;;;;;;-2.31;100.00;97306.69;7404646;19;20385;-96
2024/01/29 04:13:11;;;;;;;13.83;9.73;;;;;;;-2.15;100.00;97308.97;7401579;19;20408;-94
2024/01/29 04:16:14;;;;;;;14.60;9.73;;;;;;;-2.70;100.00;97219.00;7402521;19;20367;-96
2024/01/29 04:19:09;;;;;;;14.63;9.77;;;;;;;-2.49;100.00;97269.47;7401959;19;20372;-96
2024/01/29 04:21:45;;;;;;;17.00;10.93;;;;;;;-2.48;100.00;97242.78;7403988;19;20397;-94
2024/01/29 04:24:13;;;;;;;17.47;11.50;;;;;;;-3.05;100.00;97173.81;7399356;19;20775;-95
2024/01/29 04:26:42;;;;;;;18.80;10.73;;;;;;;-3.34;100.00;97106.34;7401158;19;20369;-94
2024/01/29 04:29:10;;;;;;;14.77;10.90;;;;;;;-2.66;100.00;97242.53;7401500;19;20937;-95
2024/01/29 04:31:39;;;;;;;16.20;13.47;;;;;;;-3.31;100.00;97164.97;7402852;19;20420;-96
2024/01/29 04:34:09;;;;;;;12.00;10.13;;;;;;;-3.23;100.00;97173.53;7399462;19;20415;-96
2024/01/29 04:36:42;;;;;;;15.50;11.00;;;;;;;-2.74;100.00;97260.66;7401387;19;20444;-96
2024/01/29 04:39:10;;;;;;;10.70;9.60;;;;;;;-2.39;100.00;97299.97;7402055;19;20377;-96
2024/01/29 04:41:39;;;;;;;17.27;11.70;;;;;;;-2.96;100.00;97232.50;7401146;19;20388;-96
2024/01/29 04:44:07;;;;;;;15.90;10.13;;;;;;;-2.98;100.00;97208.81;7399110;19;20442;-95
2024/01/29 04:46:36;;;;;;;15.47;9.80;;;;;;;-2.86;100.00;97244.19;7401984;19;20364;-95
2024/01/29 04:49:03;;;;;;;11.70;7.87;;;;;;;-3.39;100.00;97169.47;7401941;19;20425;-96
2024/01/29 04:51:34;;;;;;;10.30;9.20;;;;;;;-2.86;100.00;97247.56;7402275;19;20376;-95
2024/01/29 04:54:02;;;;;;;16.23;9.27;;;;;;;-2.91;100.00;97246.56;7400724;19;20739;-96
2024/01/29 04:56:30;;;;;;;13.60;10.03;;;;;;;-2.85;100.00;97246.56;7400936;19;20413;-96
2024/01/29 04:58:58;;;;;;;17.07;10.20;;;;;;;-2.70;100.00;97272.94;7403413;19;20433;-96
2024/01/29 05:01:25;;;;;;;12.43;11.20;;;;;;;-3.38;100.00;97179.56;7401782;19;20400;-96
2024/01/29 05:03:53;;;;;;;12.10;10.77;;;;;;;-2.48;100.00;97304.47;7400976;19;20416;-96
2024/01/29 05:06:23;;;;;;;12.53;9.33;;;;;;;-2.74;100.00;97270.94;7402274;19;20377;-96
2024/01/29 05:08:51;;;;;;;16.20;11.97;;;;;;;-2.59;100.00;97299.06;7402787;19;20380;-96
2024/01/29 05:11:20;;;;;;;22.13;14.97;;;;;;;-3.22;100.00;97199.00;7402612;19;20422;-96
2024/01/29 05:13:49;;;;;;;16.27;11.30;;;;;;;-3.52;100.00;97180.44;7401031;19;20491;-96
2024/01/29 05:16:17;;;;;;;16.63;10.40;;;;;;;-3.18;100.00;97225.88;7402099;19;20380;-96
2024/01/29 05:18:45;;;;;;;13.43;11.23;;;;;;;-3.62;100.00;97169.72;7411237;19;20381;-94
2024/01/29 05:21:12;;;;;;;20.03;12.60;;;;;;;-3.27;100.00;97224.41;7415323;19;20445;-96
2024/01/29 05:23:40;;;;;;;21.97;15.00;;;;;;;-3.26;100.00;97223.44;7401251;19;20930;-96
2024/01/29 05:26:10;;;;;;;19.43;15.07;;;;;;;-2.62;100.00;97309.72;7402350;19;20369;-96
2024/01/29 05:28:39;;;;;;;26.13;16.70;;;;;;;-3.00;100.00;97261.31;7402447;19;20377;-96
2024/01/29 05:31:07;;;;;;;24.87;17.97;;;;;;;-3.28;100.00;97222.84;7401733;19;20397;-96
2024/01/29 05:33:35;;;;;;;28.63;19.67;;;;;;;-3.09;100.00;97247.84;7399884;19;20419;-95
2024/01/29 05:36:05;;;;;;;35.60;20.97;;;;;;;-2.80;100.00;97266.56;7401840;19;20448;-96
2024/01/29 05:38:35;;;;;;;23.77;18.87;;;;;;;-3.85;100.00;97101.56;7400567;19;20357;-84
2024/01/29 05:41:02;;;;;;;30.53;19.63;;;;;;;-2.78;100.00;97255.13;7401030;19;20451;-96
2024/01/29 05:43:30;;;;;;;21.00;15.23;;;;;;;-2.48;100.00;97314.75;7400039;19;20472;-96
2024/01/29 05:45:58;;;;;;;23.67;15.47;;;;;;;-2.74;100.00;97287.13;7402103;19;20452;-96
2024/01/29 05:48:26;;;;;;;22.90;18.30;;;;;;;-2.74;100.00;97302.53;7404267;19;20397;-96
2024/01/29 05:50:54;;;;;;;17.60;13.37;;;;;;;-3.22;100.00;97211.81;7403690;19;20377;-95
2024/01/29 05:53:23;;;;;;;16.77;13.00;;;;;;;-2.72;100.00;97290.31;7402720;19;20412;-95
2024/01/29 05:55:51;;;;;;;16.80;12.10;;;;;;;-2.93;100.00;97257.00;7402610;19;20712;-96
2024/01/29 05:58:21;;;;;;;18.47;13.40;;;;;;;-2.58;100.00;97323.78;7404068;19;20708;-95
2024/01/29 06:00:48;;;;;;;17.90;13.20;;;;;;;-2.97;100.00;97281.50;7421382;19;20405;-95
2024/01/29 06:03:19;;;;;;;14.63;12.50;;;;;;;-2.83;100.00;97313.19;7409549;19;20420;-95
2024/01/29 06:05:46;;;;;;;18.40;13.33;;;;;;;-2.88;100.00;97303.44;7401897;19;20392;-96
2024/01/29 06:08:14;;;;;;;16.10;14.40;;;;;;;-3.28;100.00;97263.91;7401659;19;20933;-96
2024/01/29 06:10:42;;;;;;;17.10;12.40;;;;;;;-2.89;100.00;97303.66;7400945;19;20414;-96
2024/01/29 06:13:11;;;;;;;16.50;13.47;;;;;;;-3.67;100.00;97200.25;7400288;19;20407;-96
2024/01/29 06:15:40;;;;;;;21.30;13.93;;;;;;;-3.13;100.00;97292.81;7401134;19;20413;-96
2024/01/29 06:18:08;;;;;;;19.53;13.93;;;;;;;-3.11;100.00;97283.19;7400058;19;20372;-96
2024/01/29 06:20:35;;;;;;;16.20;12.97;;;;;;;-3.11;100.00;97285.75;7400369;19;20393;-96
2024/01/29 06:23:03;;;;;;;14.00;12.50;;;;;;;-3.39;100.00;97256.69;7400253;19;20479;-96
2024/01/29 06:25:31;;;;;;;15.73;13.90;;;;;;;-3.01;100.00;97308.50;7398279;19;20369;-96
2024/01/29 06:27:58;;;;;;;17.20;11.23;;;;;;;-3.49;100.00;97240.84;7400469;19;20388;-96
2024/01/29 06:30:27;;;;;;;14.80;12.03;;;;;;;-3.32;100.00;97273.75;7400186;19;20380;-96
2024/01/29 06:32:57;;;;;;;17.90;14.07;;;;;;;-2.95;100.00;97336.81;7398908;19;20404;-95
2024/01/29 06:35:24;;;;;;;13.27;11.27;;;;;;;-3.32;100.00;97267.81;7399364;19;20385;-96
2024/01/29 06:37:52;;;;;;;14.97;12.37;;;;;;;-3.01;100.00;97342.66;7399610;19;20691;-95
2024/01/29 06:40:26;;;;;;;14.40;11.77;;;;;;;-3.46;100.00;97256.66;7400017;19;20387;-95
2024/01/29 06:42:58;;;;;;;10.60;9.47;;;;;;;-2.96;100.00;97347.28;7398943;19;20890;-95
2024/01/29 06:45:25;;;;;;;12.37;9.00;;;;;;;-3.21;100.00;97307.59;7398418;19;20401;-95
2024/01/29 06:47:53;;;;;;;11.57;9.30;;;;;;;-3.49;100.00;97267.31;7399488;19;20392;-95
2024/01/29 06:50:21;;;;;;;9.73;8.73;;;;;;;-3.01;100.00;97344.44;7398846;19;20373;-95
2024/01/29 06:52:49;;;;;;;13.27;10.13;;;;;;;-3.68;100.00;97242.28;7398178;19;20417;-95
2024/01/29 06:55:20;;;;;;;13.63;10.47;;;;;;;-3.61;100.00;97256.75;7397872;19;20408;-95
2024/01/29 06:57:47;;;;;;;14.80;9.70;;;;;;;-3.49;100.00;97269.06;7398621;19;20386;-95
2024/01/29 07:00:15;;;;;;;14.87;8.00;;;;;;;-3.08;100.00;97329.00;7398433;19;20399;-96
2024/01/29 07:02:43;;;;;;;37.77;26.03;;;;;;;-2.89;100.00;97350.66;7398401;19;20412;-95
2024/01/29 07:05:11;;;;;;;28.80;24.10;;;;;;;-3.35;100.00;97296.41;7397554;19;20973;-95
2024/01/29 07:07:38;;;;;;;19.23;15.10;;;;;;;-3.02;100.00;97317.19;7398758;19;20357;-95
2024/01/29 07:10:06;;;;;;;15.90;12.50;;;;;;;-3.11;100.00;97323.44;7415617;19;20388;-96
2024/01/29 07:12:34;;;;;;;18.00;11.40;;;;;;;-3.39;100.00;97265.19;7426937;19;20402;-95
2024/01/29 07:15:02;;;;;;;17.00;12.00;;;;;;;-3.38;100.00;97289.91;7414463;19;20384;-95
2024/01/29 07:17:29;;;;;;;18.77;13.67;;;;;;;-3.34;100.00;97292.88;7398740;19;20384;-95
2024/01/29 07:19:57;;;;;;;13.40;10.80;;;;;;;-2.86;100.00;97355.41;7398690;19;20388;-95
2024/01/29 07:22:25;;;;;;;13.83;11.13;;;;;;;-2.75;100.00;97377.22;7397531;19;20392;-95
2024/01/29 07:24:52;;;;;;;9.73;8.70;;;;;;;-3.28;100.00;97276.72;7395740;19;21009;-95
2024/01/29 07:27:20;;;;;;;12.47;9.00;;;;;;;-2.87;100.00;97337.63;7397943;19;20684;-96
2024/01/29 07:29:48;;;;;;;41.80;34.73;;;;;;;-3.05;100.00;97328.63;7398430;19;20448;-95
2024/01/29 07:32:15;;;;;;;49.13;43.83;;;;;;;-3.52;100.00;97283.03;7397765;19;20385;-95
2024/01/29 07:34:43;;;;;;;52.30;46.57;;;;;;;-3.04;100.00;97352.53;7396196;19;20484;-95
2024/01/29 07:37:14;;;;;;;47.47;42.57;;;;;;;-3.80;100.00;97225.78;7397847;19;20384;-95
2024/01/29 07:39:42;;;;;;;39.47;35.23;;;;;;;-2.75;100.00;97384.94;7398088;19;20906;-96
2024/01/29 07:42:11;;;;;;;22.40;20.00;;;;;;;-2.95;100.00;97361.69;7397533;19;20389;-94
2024/01/29 07:44:40;;;;;;;23.90;18.37;;;;;;;-2.86;100.00;97346.91;7396418;19;20409;-95
2024/01/29 07:47:08;;;;;;;23.53;19.90;;;;;;;-2.78;100.00;97350.16;7397484;19;20429;-96
2024/01/29 07:49:35;;;;;;;27.40;22.13;;;;;;;-2.63;100.00;97359.53;7397458;19;20408;-95
2024/01/29 07:52:04;;;;;;;30.97;23.73;;;;;;;-2.49;100.00;97387.69;7397044;19;20373;-95
2024/01/29 07:54:38;;;;;;;30.17;23.63;;;;;;;-3.49;100.00;97231.38;7395533;19;20890;-93
2024/01/29 07:57:11;;;;;;;29.97;20.60;;;;;;;-3.11;100.00;97272.91;7397427;19;20373;-95
2024/01/29 07:59:40;;;;;;;29.07;19.93;;;;;;;-2.59;100.00;97355.59;7398021;19;20391;-94
2024/01/29 08:02:09;;;;;;;23.50;17.00;;;;;;;-2.48;100.00;97353.28;7396990;19;20381;-95
2024/01/29 08:04:37;;;;;;;24.63;15.90;;;;;;;-2.38;100.00;97369.16;7395107;19;20416;-94
2024/01/29 08:07:06;;;;;;;17.40;13.67;;;;;;;-2.42;100.00;97344.84;7397217;19;20407;-94
2024/01/29 08:09:34;;;;;;;24.53;16.03;;;;;;;-2.29;100.00;97351.03;7396902;19;20369;-95
2024/01/29 08:12:03;;;;;;;16.53;14.80;;;;;;;-2.29;100.00;97336.41;7396902;19;20380;-94
2024/01/29 08:14:30;;;;;;;16.83;13.57;;;;;;;-2.42;100.00;97290.88;7395751;19;20411;-95
2024/01/29 08:16:58;;;;;;;18.53;12.37;;;;;;;-1.90;100.00;97356.31;7396852;19;20381;-95
2024/01/29 08:19:26;;;;;;;17.87;11.30;;;;;;;-2.03;100.00;97327.19;7397976;19;20444;-93
2024/01/29 08:21:56;;;;;;;14.80;12.17;;;;;;;-1.57;100.00;97378.78;7396973;19;20393;-94
2024/01/29 08:24:24;;;;;;;13.77;12.40;;;;;;;-1.48;100.00;97377.63;7394805;19;20529;-95
2024/01/29 08:26:52;;;;;;;20.20;12.23;;;;;;;-2.08;100.00;97228.25;7395105;19;20376;-91
2024/01/29 08:29:20;;;;;;;14.33;12.20;;;;;;;-2.04;100.00;97246.69;7395564;19;20401;-90
2024/01/29 08:31:48;;;;;;;16.40;11.50;;;;;;;-2.08;100.00;97243.69;7395509;19;20381;-90
2024/01/29 08:34:15;;;;;;;13.50;10.90;;;;;;;-1.63;100.00;97299.78;7394525;19;20433;-91
2024/01/29 08:36:43;;;;;;;11.83;10.20;;;;;;;-1.34;100.00;97330.28;7398708;19;20364;-90
2024/01/29 08:39:17;;;;;;;17.03;10.90;;;;;;;-1.55;100.00;97302.94;7404267;19;20384;-91
2024/01/29 08:41:47;;;;;;;12.10;10.40;;;;;;;-1.50;100.00;97292.09;7404795;19;20857;-90
2024/01/29 08:44:15;;;;;;;22.50;15.03;;;;;;;-1.40;100.00;97289.88;7400832;19;20396;-90
2024/01/29 08:46:43;;;;;;;15.80;10.27;;;;;;;-1.36;100.00;97249.09;7402714;19;20744;-91
2024/01/29 08:49:11;;;;;;;10.33;8.80;;;;;;;-1.06;100.00;97275.19;7402007;19;20388;-91
2024/01/29 08:51:38;;;;;;;13.33;8.70;;;;;;;-0.74;100.00;97291.59;7402632;19;20365;-90
2024/01/29 08:54:06;;;;;;;18.23;10.80;;;;;;;-0.30;100.00;97317.44;7400670;19;20448;-91
2024/01/29 08:56:34;;;;;;;47.40;19.00;;;;;;;-0.27;100.00;97296.41;7409182;19;20973;-90
2024/01/29 08:59:01;;;;;;;21.93;13.10;;;;;;;-0.08;100.00;97281.03;7418587;19;20389;-90
2024/01/29 09:01:28;;;;;;;16.73;10.00;;;;;;;0.61;100.00;97375.78;7404224;19;20381;-90
2024/01/29 09:03:56;;;;;;;11.20;7.67;;;;;;;0.38;100.00;97305.81;7400057;19;20918;-90
2024/01/29 09:06:24;;;;;;;12.60;8.57;;;;;;;0.55;100.00;97312.84;7399251;19;20373;-90
2024/01/29 09:08:51;;;;;;;10.90;8.10;;;;;;;0.76;100.00;97345.28;7402368;19;20392;-91
2024/01/29 09:11:18;;;;;;;7.70;6.90;;;;;;;0.82;100.00;97341.06;7401534;19;20382;-90
2024/01/29 09:13:46;;;;;;;10.80;7.73;;;;;;;0.56;100.00;97277.47;7400171;19;20409;-90
2024/01/29 09:16:13;;;;;;;12.27;8.33;;;;;;;0.75;100.00;97288.63;7401482;19;20702;-90
2024/01/29 09:18:41;;;;;;;13.93;7.90;;;;;;;0.95;100.00;97317.72;7401032;19;20388;-90
2024/01/29 09:21:09;;;;;;;9.80;7.03;;;;;;;0.76;100.00;97290.22;7401091;19;20390;-90
2024/01/29 09:23:40;;;;;;;11.83;9.80;;;;;;;0.94;100.00;97300.63;7400485;19;20424;-90
2024/01/29 09:26:07;;;;;;;10.33;8.07;;;;;;;1.03;100.00;97294.19;7399451;19;20380;-89
2024/01/29 09:28:35;;;;;;;8.60;7.13;;;;;;;1.29;100.00;97324.16;7401287;19;20364;-89
2024/01/29 09:31:02;;;;;;;7.70;6.63;;;;;;;1.29;100.00;97318.97;7401176;19;20365;-89
2024/01/29 09:33:30;;;;;;;10.70;7.27;;;;;;;1.75;100.00;97377.22;7399315;19;20918;-89
2024/01/29 09:35:58;;;;;;;11.83;8.13;;;;;;;1.25;100.00;97294.56;7400308;19;20384;-89
2024/01/29 09:38:25;;;;;;;8.20;6.87;;;;;;;1.52;100.00;97321.72;7400742;19;20870;-89
2024/01/29 09:40:55;;;;;;;8.03;7.20;;;;;;;2.41;100.00;97423.09;7400662;19;20368;-89
2024/01/29 09:43:26;;;;;;;9.60;6.83;;;;;;;2.23;100.00;97398.03;7399491;19;20412;-89
2024/01/29 09:45:54;;;;;;;8.27;6.47;;;;;;;1.64;100.00;97288.19;7399476;19;20481;-89
2024/01/29 09:48:23;;;;;;;10.80;7.00;;;;;;;1.31;100.00;97236.03;7399069;19;20373;-89
2024/01/29 09:50:51;;;;;;;10.50;6.10;;;;;;;1.77;100.00;97302.75;7399851;19;20863;-89
2024/01/29 09:53:20;;;;;;;7.93;6.17;;;;;;;1.86;100.00;97301.47;7398663;19;20416;-89
2024/01/29 09:55:48;;;;;;;9.20;7.10;;;;;;;2.19;100.00;97347.66;7398698;19;20389;-89
2024/01/29 09:58:16;;;;;;;10.10;6.53;;;;;;;2.14;100.00;97321.63;7399760;19;20368;-88
2024/01/29 10:00:43;;;;;;;10.10;6.50;;;;;;;2.76;100.00;97401.69;7401171;19;20368;-88
2024/01/29 10:03:34;;;;;;;10.30;6.37;;;;;;;2.58;100.00;97327.41;7398619;19;20419;-88
2024/01/29 10:06:02;;;;;;;12.40;7.10;;;;;;;2.39;100.00;97290.41;7398310;19;20380;-88
2024/01/29 10:08:30;;;;;;;8.37;5.50;;;;;;;2.42;100.00;97288.16;7398796;19;20389;-88
2024/01/29 10:10:57;;;;;;;9.23;6.20;;;;;;;2.79;100.00;97332.09;7398917;19;20847;-88
2024/01/29 10:13:25;;;;;;;11.40;6.70;;;;;;;3.15;100.00;97366.63;7397772;19;20781;-88
2024/01/29 10:15:52;;;;;;;8.57;6.90;;;;;;;2.77;100.00;97304.81;7398596;19;20384;-88
2024/01/29 10:18:20;;;;;;;7.90;6.00;;;;;;;3.08;100.00;97352.97;7398930;19;20373;-88
2024/01/29 10:21:05;;;;;;;10.53;6.87;;;;;;;3.27;100.00;97359.63;7398633;19;20384;-88
2024/01/29 10:23:33;;;;;;;8.13;7.00;;;;;;;3.07;100.00;97315.88;7397731;19;20437;-88
2024/01/29 10:26:01;;;;;;;11.00;7.43;;;;;;;3.23;100.00;97335.97;7397237;19;20419;-88
2024/01/29 10:28:29;;;;;;;9.47;7.20;;;;;;;3.54;100.00;97367.75;7398832;19;20388;-88
2024/01/29 10:30:58;;;;;;;10.23;6.63;;;;;;;3.46;100.00;97339.56;7398269;19;20870;-88
2024/01/29 10:33:26;;;;;;;12.23;7.50;;;;;;;3.44;100.00;97339.81;7397105;19;20533;-88
2024/01/29 10:35:58;;;;;;;9.47;6.80;;;;;;;3.38;100.00;97321.75;7397913;19;20388;-88
2024/01/29 10:38:28;;;;;;;8.23;6.00;;;;;;;3.70;100.00;97356.72;7398425;19;20381;-88
2024/01/29 10:40:59;;;;;;;18.53;8.37;;;;;;;3.59;100.00;97300.41;7398700;19;20476;-88
2024/01/29 10:43:36;;;;;;;7.00;5.40;;;;;;;3.31;100.00;97257.00;7397326;19;20421;-86
2024/01/29 10:46:07;;;;;;;11.10;6.50;;;;;;;4.03;100.00;97353.47;7397361;19;20393;-88
2024/01/29 10:48:37;;;;;;;6.30;5.33;;;;;;;3.98;100.00;97342.22;7397962;19;20413;-88
2024/01/29 10:51:07;;;;;;;7.73;5.80;;;;;;;3.95;100.00;97316.69;7397729;19;20669;-88
2024/01/29 10:53:36;;;;;;;10.77;6.00;;;;;;;3.46;100.00;97248.75;7396999;19;20404;-88
2024/01/29 10:56:06;;;;;;;9.00;6.40;;;;;;;3.75;100.00;97271.13;7396096;19;20424;-88
2024/01/29 10:58:34;;;;;;;8.97;5.83;;;;;;;4.36;100.00;97328.63;7396466;19;20414;-88
2024/01/29 11:01:05;;;;;;;8.13;5.70;;;;;;;4.21;100.00;97297.94;7396938;19;20391;-88
